CCA318 VNKT-VQPR
Flight info
| Callsign | CCA318 |
|---|---|
| Flight time | 0h 52m |
| Altitude | FL350 |
| Route | IGRI1E KIMTI G348 SUBSU TAKTI PRO |
| Aircraft | A319/M-SDE3FGHIRWY/LB1 |
Departure
| Time | 2026-04-27 15:03 |
|---|---|
| Airport | Tribhuvan International Airport (VNKT) |
Arrival
| Time | 2026-04-27 15:56 |
|---|---|
| Airport | Paro International Airport (VQPR) |
| Time | Latitude | Longitude | Altitude | Speed | Heading |
|---|---|---|---|---|---|
| 2026-04-27 14:58 | 27.70071 | 85.35870 | 4396 ft | 0 kts | 291° |
| 2026-04-27 15:01 | 27.70072 | 85.35869 | 4396 ft | 1 kts | 319° |
| 2026-04-27 15:01 | 27.70089 | 85.35889 | 4397 ft | 13 kts | 56° |
| 2026-04-27 15:01 | 27.70167 | 85.36018 | 4401 ft | 20 kts | 45° |
| 2026-04-27 15:02 | 27.70309 | 85.36097 | 4402 ft | 29 kts | 22° |
| 2026-04-27 15:02 | 27.70493 | 85.36180 | 4399 ft | 23 kts | 22° |
| 2026-04-27 15:02 | 27.70593 | 85.36296 | 4397 ft | 19 kts | 90° |
| 2026-04-27 15:02 | 27.70504 | 85.36304 | 4398 ft | 35 kts | 202° |
| 2026-04-27 15:03 | 27.70060 | 85.36101 | 4398 ft | 102 kts | 201° |
| 2026-04-27 15:03 | 27.69216 | 85.35714 | 4368 ft | 158 kts | 202° |
| 2026-04-27 15:03 | 27.68173 | 85.35239 | 4810 ft | 165 kts | 201° |
| 2026-04-27 15:03 | 27.67117 | 85.34759 | 5417 ft | 166 kts | 203° |
| 2026-04-27 15:04 | 27.66143 | 85.34109 | 6043 ft | 166 kts | 220° |
| 2026-04-27 15:04 | 27.65372 | 85.33101 | 6494 ft | 178 kts | 239° |
| 2026-04-27 15:04 | 27.64924 | 85.31748 | 6875 ft | 195 kts | 260° |
| 2026-04-27 15:04 | 27.64960 | 85.30185 | 7321 ft | 208 kts | 283° |
| 2026-04-27 15:05 | 27.65554 | 85.28714 | 7938 ft | 211 kts | 305° |
| 2026-04-27 15:05 | 27.66583 | 85.27520 | 8438 ft | 221 kts | 323° |
| 2026-04-27 15:05 | 27.67972 | 85.26730 | 9006 ft | 230 kts | 343° |
| 2026-04-27 15:05 | 27.69537 | 85.26516 | 9697 ft | 231 kts | 3° |
| 2026-04-27 15:06 | 27.71098 | 85.26928 | 10370 ft | 233 kts | 24° |
| 2026-04-27 15:06 | 27.72438 | 85.27930 | 11012 ft | 236 kts | 44° |
| 2026-04-27 15:06 | 27.73397 | 85.29414 | 11639 ft | 239 kts | 63° |
| 2026-04-27 15:06 | 27.74113 | 85.31132 | 12071 ft | 251 kts | 66° |
| 2026-04-27 15:07 | 27.74846 | 85.32991 | 12472 ft | 268 kts | 66° |
| 2026-04-27 15:07 | 27.75560 | 85.34948 | 13123 ft | 274 kts | 74° |
| 2026-04-27 15:07 | 27.75818 | 85.37066 | 13849 ft | 277 kts | 91° |
| 2026-04-27 15:07 | 27.75508 | 85.39207 | 14552 ft | 279 kts | 108° |
| 2026-04-27 15:08 | 27.74653 | 85.41161 | 15219 ft | 282 kts | 126° |
| 2026-04-27 15:08 | 27.73315 | 85.42761 | 15868 ft | 285 kts | 142° |
| 2026-04-27 15:08 | 27.71612 | 85.43879 | 16491 ft | 288 kts | 155° |
| 2026-04-27 15:08 | 27.69760 | 85.44786 | 16992 ft | 296 kts | 154° |
| 2026-04-27 15:09 | 27.67935 | 85.45953 | 17293 ft | 311 kts | 144° |
| 2026-04-27 15:09 | 27.66241 | 85.47543 | 17573 ft | 327 kts | 134° |
| 2026-04-27 15:09 | 27.64761 | 85.49569 | 17848 ft | 342 kts | 123° |
| 2026-04-27 15:09 | 27.63610 | 85.51966 | 18117 ft | 357 kts | 112° |
| 2026-04-27 15:10 | 27.62795 | 85.54652 | 18434 ft | 370 kts | 106° |
| 2026-04-27 15:10 | 27.62066 | 85.57483 | 18684 ft | 385 kts | 105° |
| 2026-04-27 15:10 | 27.61323 | 85.60428 | 18930 ft | 399 kts | 105° |
| 2026-04-27 15:10 | 27.60650 | 85.63504 | 19166 ft | 412 kts | 102° |
| 2026-04-27 15:11 | 27.60080 | 85.66711 | 19397 ft | 425 kts | 101° |
| 2026-04-27 15:11 | 27.59512 | 85.70051 | 19616 ft | 438 kts | 101° |
| 2026-04-27 15:11 | 27.58936 | 85.73452 | 19864 ft | 449 kts | 101° |
| 2026-04-27 15:11 | 27.58346 | 85.76915 | 20312 ft | 454 kts | 101° |
| 2026-04-27 15:12 | 27.57748 | 85.80403 | 20845 ft | 457 kts | 101° |
| 2026-04-27 15:12 | 27.57143 | 85.83915 | 21347 ft | 460 kts | 101° |
| 2026-04-27 15:12 | 27.56533 | 85.87449 | 21821 ft | 463 kts | 101° |
| 2026-04-27 15:12 | 27.55917 | 85.91007 | 22281 ft | 466 kts | 101° |
| 2026-04-27 15:13 | 27.55290 | 85.94615 | 22715 ft | 469 kts | 101° |
| 2026-04-27 15:13 | 27.54663 | 85.98220 | 23123 ft | 472 kts | 101° |
| 2026-04-27 15:13 | 27.54031 | 86.01849 | 23535 ft | 474 kts | 101° |
| 2026-04-27 15:13 | 27.53397 | 86.05481 | 24082 ft | 473 kts | 101° |
| 2026-04-27 15:14 | 27.52767 | 86.09088 | 24655 ft | 471 kts | 101° |
| 2026-04-27 15:14 | 27.52136 | 86.12690 | 25186 ft | 469 kts | 101° |
| 2026-04-27 15:14 | 27.51508 | 86.16274 | 25684 ft | 468 kts | 101° |
| 2026-04-27 15:14 | 27.50873 | 86.19886 | 26174 ft | 468 kts | 101° |
| 2026-04-27 15:15 | 27.50244 | 86.23458 | 26654 ft | 467 kts | 101° |
| 2026-04-27 15:15 | 27.49615 | 86.27022 | 27124 ft | 466 kts | 101° |
| 2026-04-27 15:15 | 27.48957 | 86.30575 | 27584 ft | 465 kts | 102° |
| 2026-04-27 15:15 | 27.48280 | 86.34114 | 28032 ft | 464 kts | 102° |
| 2026-04-27 15:16 | 27.47600 | 86.37642 | 28468 ft | 463 kts | 102° |
| 2026-04-27 15:16 | 27.46921 | 86.41164 | 28894 ft | 462 kts | 102° |
| 2026-04-27 15:16 | 27.46237 | 86.44708 | 29313 ft | 462 kts | 102° |
| 2026-04-27 15:16 | 27.45560 | 86.48219 | 29718 ft | 461 kts | 102° |
| 2026-04-27 15:17 | 27.44884 | 86.51725 | 30112 ft | 460 kts | 102° |
| 2026-04-27 15:17 | 27.44208 | 86.55225 | 30495 ft | 459 kts | 102° |
| 2026-04-27 15:17 | 27.43531 | 86.58724 | 30869 ft | 459 kts | 102° |
| 2026-04-27 15:17 | 27.42856 | 86.62209 | 31232 ft | 458 kts | 102° |
| 2026-04-27 15:18 | 27.42179 | 86.65703 | 31583 ft | 457 kts | 102° |
| 2026-04-27 15:18 | 27.41498 | 86.69223 | 31933 ft | 457 kts | 102° |
| 2026-04-27 15:18 | 27.40825 | 86.72701 | 32274 ft | 456 kts | 102° |
| 2026-04-27 15:18 | 27.40154 | 86.76163 | 32603 ft | 455 kts | 102° |
| 2026-04-27 15:19 | 27.39481 | 86.79620 | 32922 ft | 455 kts | 102° |
| 2026-04-27 15:19 | 27.38806 | 86.83083 | 33230 ft | 454 kts | 102° |
| 2026-04-27 15:19 | 27.38131 | 86.86536 | 33493 ft | 455 kts | 102° |
| 2026-04-27 15:19 | 27.37451 | 86.90013 | 33720 ft | 456 kts | 102° |
| 2026-04-27 15:20 | 27.36766 | 86.93505 | 33939 ft | 457 kts | 102° |
| 2026-04-27 15:20 | 27.36084 | 86.96981 | 34155 ft | 458 kts | 102° |
| 2026-04-27 15:20 | 27.35397 | 87.00472 | 34369 ft | 458 kts | 102° |
| 2026-04-27 15:20 | 27.34708 | 87.03964 | 34575 ft | 459 kts | 102° |
| 2026-04-27 15:21 | 27.34019 | 87.07461 | 34773 ft | 460 kts | 102° |
| 2026-04-27 15:21 | 27.33287 | 87.10949 | 34945 ft | 461 kts | 104° |
| 2026-04-27 15:21 | 27.31339 | 87.17830 | 34980 ft | 462 kts | 111° |
| 2026-04-27 15:22 | 27.28739 | 87.24401 | 34981 ft | 462 kts | 117° |
| 2026-04-27 15:22 | 27.25540 | 87.30627 | 34982 ft | 462 kts | 122° |
| 2026-04-27 15:23 | 27.22161 | 87.36731 | 34982 ft | 462 kts | 122° |
| 2026-04-27 15:23 | 27.18770 | 87.42855 | 34982 ft | 462 kts | 122° |
| 2026-04-27 15:24 | 27.15390 | 87.48966 | 34982 ft | 462 kts | 122° |
| 2026-04-27 15:24 | 27.12009 | 87.55075 | 34982 ft | 462 kts | 121° |
| 2026-04-27 15:25 | 27.08615 | 87.61198 | 34982 ft | 462 kts | 122° |
| 2026-04-27 15:25 | 27.05235 | 87.67295 | 34981 ft | 462 kts | 122° |
| 2026-04-27 15:26 | 27.01862 | 87.73393 | 34981 ft | 462 kts | 122° |
| 2026-04-27 15:26 | 26.98472 | 87.79497 | 34981 ft | 462 kts | 122° |
| 2026-04-27 15:27 | 26.95071 | 87.85601 | 34981 ft | 462 kts | 122° |
| 2026-04-27 15:27 | 26.91678 | 87.91680 | 34981 ft | 462 kts | 122° |
| 2026-04-27 15:28 | 26.88268 | 87.97764 | 34981 ft | 462 kts | 122° |
| 2026-04-27 15:28 | 26.84836 | 88.03850 | 34981 ft | 462 kts | 122° |
| 2026-04-27 15:29 | 26.81430 | 88.09914 | 34981 ft | 462 kts | 122° |
| 2026-04-27 15:29 | 26.78028 | 88.15977 | 34981 ft | 462 kts | 122° |
| 2026-04-27 15:30 | 26.74676 | 88.22070 | 34978 ft | 462 kts | 118° |
| 2026-04-27 15:30 | 26.72565 | 88.28823 | 34982 ft | 462 kts | 99° |
| 2026-04-27 15:31 | 26.72469 | 88.35950 | 34982 ft | 462 kts | 81° |
| 2026-04-27 15:31 | 26.74383 | 88.42748 | 34982 ft | 462 kts | 63° |
| 2026-04-27 15:32 | 26.77662 | 88.48925 | 34868 ft | 464 kts | 58° |
| 2026-04-27 15:32 | 26.79370 | 88.51979 | 34076 ft | 467 kts | 58° |
| 2026-04-27 15:32 | 26.81079 | 88.55048 | 33237 ft | 467 kts | 58° |
| 2026-04-27 15:33 | 26.82777 | 88.58121 | 32376 ft | 468 kts | 58° |
| 2026-04-27 15:33 | 26.84472 | 88.61205 | 31489 ft | 468 kts | 58° |
| 2026-04-27 15:33 | 26.86162 | 88.64291 | 30578 ft | 469 kts | 58° |
| 2026-04-27 15:33 | 26.87862 | 88.67411 | 29663 ft | 469 kts | 59° |
| 2026-04-27 15:34 | 26.89546 | 88.70513 | 29128 ft | 459 kts | 59° |
| 2026-04-27 15:34 | 26.91167 | 88.73498 | 29011 ft | 442 kts | 59° |
| 2026-04-27 15:34 | 26.92730 | 88.76374 | 28960 ft | 425 kts | 58° |
| 2026-04-27 15:34 | 26.94233 | 88.79138 | 28915 ft | 407 kts | 58° |
| 2026-04-27 15:35 | 26.95661 | 88.81763 | 28423 ft | 390 kts | 58° |
| 2026-04-27 15:35 | 26.97045 | 88.84310 | 27749 ft | 379 kts | 58° |
| 2026-04-27 15:35 | 26.98371 | 88.86793 | 27139 ft | 368 kts | 60° |
| 2026-04-27 15:35 | 26.99614 | 88.89260 | 26556 ft | 357 kts | 60° |
| 2026-04-27 15:36 | 27.00802 | 88.91642 | 26011 ft | 347 kts | 61° |
| 2026-04-27 15:36 | 27.01954 | 88.93953 | 25494 ft | 337 kts | 60° |
| 2026-04-27 15:36 | 27.03074 | 88.96199 | 25011 ft | 327 kts | 60° |
| 2026-04-27 15:36 | 27.04165 | 88.98384 | 24659 ft | 319 kts | 60° |
| 2026-04-27 15:37 | 27.05213 | 89.00486 | 24527 ft | 299 kts | 60° |
| 2026-04-27 15:37 | 27.06194 | 89.02452 | 24463 ft | 283 kts | 60° |
| 2026-04-27 15:37 | 27.07144 | 89.04356 | 24239 ft | 278 kts | 60° |
| 2026-04-27 15:37 | 27.08082 | 89.06237 | 23855 ft | 278 kts | 60° |
| 2026-04-27 15:38 | 27.09025 | 89.08127 | 23441 ft | 278 kts | 60° |
| 2026-04-27 15:38 | 27.09960 | 89.10004 | 23016 ft | 276 kts | 60° |
| 2026-04-27 15:38 | 27.10891 | 89.11859 | 22564 ft | 271 kts | 60° |
| 2026-04-27 15:38 | 27.11806 | 89.13672 | 22113 ft | 266 kts | 60° |
| 2026-04-27 15:39 | 27.12702 | 89.15459 | 21666 ft | 264 kts | 60° |
| 2026-04-27 15:39 | 27.13563 | 89.17278 | 21210 ft | 264 kts | 68° |
| 2026-04-27 15:39 | 27.13939 | 89.19261 | 20759 ft | 262 kts | 88° |
| 2026-04-27 15:39 | 27.13810 | 89.21285 | 20326 ft | 261 kts | 97° |
| 2026-04-27 15:40 | 27.13573 | 89.23287 | 19940 ft | 258 kts | 98° |
| 2026-04-27 15:40 | 27.13326 | 89.25258 | 19589 ft | 254 kts | 98° |
| 2026-04-27 15:40 | 27.13087 | 89.27200 | 19238 ft | 250 kts | 97° |
| 2026-04-27 15:40 | 27.12859 | 89.29114 | 18888 ft | 247 kts | 97° |
| 2026-04-27 15:41 | 27.12636 | 89.31027 | 18537 ft | 246 kts | 97° |
| 2026-04-27 15:41 | 27.12418 | 89.32918 | 18188 ft | 245 kts | 97° |
| 2026-04-27 15:41 | 27.12204 | 89.34796 | 18001 ft | 242 kts | 97° |
| 2026-04-27 15:41 | 27.11990 | 89.36670 | 17997 ft | 244 kts | 97° |
| 2026-04-27 15:42 | 27.11775 | 89.38554 | 17991 ft | 244 kts | 97° |
| 2026-04-27 15:42 | 27.11560 | 89.40435 | 17990 ft | 244 kts | 97° |
| 2026-04-27 15:42 | 27.11345 | 89.42317 | 17990 ft | 244 kts | 97° |
| 2026-04-27 15:42 | 27.11128 | 89.44216 | 17887 ft | 244 kts | 97° |
| 2026-04-27 15:43 | 27.10913 | 89.46097 | 17718 ft | 243 kts | 97° |
| 2026-04-27 15:43 | 27.10698 | 89.47971 | 17517 ft | 242 kts | 97° |
| 2026-04-27 15:43 | 27.10650 | 89.49841 | 17292 ft | 242 kts | 78° |
| 2026-04-27 15:43 | 27.11409 | 89.51480 | 17070 ft | 240 kts | 45° |
| 2026-04-27 15:44 | 27.12823 | 89.52415 | 16854 ft | 240 kts | 14° |
| 2026-04-27 15:44 | 27.14464 | 89.52428 | 16655 ft | 239 kts | 348° |
| 2026-04-27 15:44 | 27.16029 | 89.51805 | 16456 ft | 238 kts | 333° |
| 2026-04-27 15:44 | 27.17404 | 89.50794 | 16256 ft | 237 kts | 320° |
| 2026-04-27 15:45 | 27.18555 | 89.49481 | 16056 ft | 237 kts | 308° |
| 2026-04-27 15:45 | 27.19447 | 89.47944 | 15860 ft | 236 kts | 299° |
| 2026-04-27 15:45 | 27.20228 | 89.46334 | 15661 ft | 235 kts | 297° |
| 2026-04-27 15:45 | 27.20994 | 89.44723 | 15462 ft | 234 kts | 298° |
| 2026-04-27 15:46 | 27.21764 | 89.43120 | 15262 ft | 234 kts | 298° |
| 2026-04-27 15:46 | 27.22545 | 89.41514 | 15061 ft | 233 kts | 298° |
| 2026-04-27 15:46 | 27.23239 | 89.39881 | 14861 ft | 232 kts | 290° |
| 2026-04-27 15:46 | 27.23747 | 89.38176 | 14670 ft | 227 kts | 287° |
| 2026-04-27 15:47 | 27.24197 | 89.36498 | 14488 ft | 225 kts | 286° |
| 2026-04-27 15:47 | 27.24692 | 89.34845 | 14286 ft | 224 kts | 293° |
| 2026-04-27 15:47 | 27.25473 | 89.33346 | 14085 ft | 223 kts | 307° |
| 2026-04-27 15:47 | 27.26538 | 89.32098 | 14001 ft | 222 kts | 320° |
| 2026-04-27 15:48 | 27.27842 | 89.31150 | 13993 ft | 223 kts | 333° |
| 2026-04-27 15:48 | 27.29295 | 89.30571 | 13992 ft | 223 kts | 347° |
| 2026-04-27 15:48 | 27.30829 | 89.30382 | 13991 ft | 223 kts | 0° |
| 2026-04-27 15:49 | 27.33913 | 89.30479 | 13988 ft | 223 kts | 354° |
| 2026-04-27 15:49 | 27.35410 | 89.30120 | 13980 ft | 215 kts | 341° |
| 2026-04-27 15:49 | 27.36728 | 89.29425 | 13968 ft | 210 kts | 329° |
| 2026-04-27 15:49 | 27.37977 | 89.28547 | 13988 ft | 211 kts | 327° |
| 2026-04-27 15:50 | 27.39196 | 89.27637 | 13858 ft | 210 kts | 326° |
| 2026-04-27 15:50 | 27.40360 | 89.26759 | 13684 ft | 192 kts | 326° |
| 2026-04-27 15:50 | 27.41474 | 89.26080 | 13506 ft | 178 kts | 338° |
| 2026-04-27 15:50 | 27.42665 | 89.25730 | 13361 ft | 179 kts | 352° |
| 2026-04-27 15:51 | 27.43899 | 89.25720 | 13211 ft | 178 kts | 7° |
| 2026-04-27 15:51 | 27.45093 | 89.26051 | 13063 ft | 178 kts | 21° |
| 2026-04-27 15:51 | 27.46185 | 89.26706 | 12913 ft | 178 kts | 35° |
| 2026-04-27 15:51 | 27.47093 | 89.27631 | 12764 ft | 177 kts | 49° |
| 2026-04-27 15:52 | 27.47776 | 89.28777 | 12615 ft | 177 kts | 63° |
| 2026-04-27 15:52 | 27.48191 | 89.30063 | 12540 ft | 176 kts | 77° |
| 2026-04-27 15:52 | 27.48309 | 89.31429 | 12539 ft | 177 kts | 94° |
| 2026-04-27 15:52 | 27.48027 | 89.32771 | 12351 ft | 180 kts | 112° |
| 2026-04-27 15:53 | 27.47355 | 89.33945 | 11808 ft | 182 kts | 130° |
| 2026-04-27 15:53 | 27.46527 | 89.35030 | 11293 ft | 183 kts | 128° |
| 2026-04-27 15:53 | 27.45754 | 89.36123 | 10890 ft | 177 kts | 132° |
| 2026-04-27 15:53 | 27.44957 | 89.37139 | 10472 ft | 173 kts | 125° |
| 2026-04-27 15:54 | 27.44345 | 89.38316 | 9849 ft | 183 kts | 115° |
| 2026-04-27 15:54 | 27.43832 | 89.39648 | 9182 ft | 191 kts | 112° |
| 2026-04-27 15:54 | 27.43183 | 89.40901 | 8789 ft | 178 kts | 143° |
| 2026-04-27 15:54 | 27.42064 | 89.41418 | 8235 ft | 181 kts | 156° |
| 2026-04-27 15:55 | 27.40914 | 89.42102 | 7474 ft | 193 kts | 149° |
| 2026-04-27 15:55 | 27.40181 | 89.42581 | 7358 ft | 178 kts | 150° |
| 2026-04-27 15:55 | 27.38971 | 89.43371 | 7328 ft | 115 kts | 149° |
| 2026-04-27 15:55 | 27.38517 | 89.43823 | 7277 ft | 61 kts | 95° |
| 2026-04-27 15:56 | 27.38624 | 89.44021 | 7258 ft | 17 kts | 339° |
| 2026-04-27 15:56 | 27.38621 | 89.43864 | 7265 ft | 31 kts | 271° |
| 2026-04-27 15:56 | 27.38714 | 89.43619 | 7282 ft | 44 kts | 292° |
| 2026-04-27 15:56 | 27.39057 | 89.43206 | 7314 ft | 103 kts | 322° |
| 2026-04-27 15:57 | 27.39686 | 89.42864 | 7314 ft | 89 kts | 343° |
| 2026-04-27 15:57 | 27.40180 | 89.42562 | 7330 ft | 78 kts | 331° |
| 2026-04-27 15:57 | 27.40548 | 89.42333 | 7345 ft | 9 kts | 329° |
| 2026-04-27 15:57 | 27.40584 | 89.42309 | 7346 ft | 5 kts | 329° |
| 2026-04-27 15:58 | 27.40639 | 89.42273 | 7347 ft | 13 kts | 330° |
| 2026-04-27 15:58 | 27.40675 | 89.42193 | 7349 ft | 13 kts | 252° |
| 2026-04-27 15:58 | 27.40632 | 89.42113 | 7348 ft | 6 kts | 242° |
| 2026-04-27 15:58 | 27.40631 | 89.42112 | 7348 ft | 0 kts | 242° |